createdAt,value
2018-02-25T00:00:12.227Z,3.10
2018-02-25T00:01:15.486Z,2.72
2018-02-25T00:02:18.006Z,3.20
2018-02-25T00:03:20.486Z,3.10
2018-02-25T00:04:23.067Z,3.60
2018-02-25T00:05:25.731Z,3.22
2018-02-25T00:06:28.972Z,3.35
2018-02-25T00:07:31.572Z,3.50
2018-02-25T00:08:34.102Z,3.50
2018-02-25T00:09:36.631Z,2.97
2018-02-25T00:10:39.188Z,3.37
2018-02-25T00:11:41.856Z,2.65
2018-02-25T00:12:44.328Z,3.35
2018-02-25T00:13:47.625Z,3.05
2018-02-25T00:14:50.107Z,2.85
2018-02-25T00:15:53.413Z,2.85
2018-02-25T00:16:55.895Z,2.95
2018-02-25T00:17:58.956Z,3.33
2018-02-25T00:19:01.479Z,2.80
2018-02-25T00:20:03.936Z,3.10
2018-02-25T00:21:07.183Z,2.90
2018-02-25T00:22:11.162Z,3.25
2018-02-25T00:23:14.488Z,2.95
2018-02-25T00:24:17.749Z,2.97
2018-02-25T00:25:20.991Z,2.78
2018-02-25T00:26:24.243Z,2.80
2018-02-25T00:27:26.711Z,3.55
2018-02-25T00:28:29.273Z,3.22
2018-02-25T00:29:32.544Z,2.78
2018-02-25T00:30:35.033Z,3.65
2018-02-25T00:31:38.281Z,2.95
2018-02-25T00:32:42.267Z,3.53
2018-02-25T00:33:44.725Z,3.40
2018-02-25T00:34:47.194Z,3.05
2018-02-25T00:35:50.457Z,3.08
2018-02-25T00:36:53.004Z,4.05
2018-02-25T00:37:55.513Z,3.47
2018-02-25T00:38:57.983Z,3.10
2018-02-25T00:40:00.458Z,3.50
2018-02-25T00:41:02.930Z,3.45
2018-02-25T00:42:05.420Z,3.40
2018-02-25T00:43:08.034Z,3.33
2018-02-25T00:44:10.566Z,3.30
2018-02-25T00:45:13.040Z,3.55
2018-02-25T00:46:15.539Z,2.67
2018-02-25T00:47:18.815Z,3.40
2018-02-25T00:48:21.328Z,3.62
2018-02-25T00:49:23.825Z,3.72
2018-02-25T00:50:26.307Z,4.10
2018-02-25T00:51:29.630Z,3.45
2018-02-25T00:52:32.216Z,3.42
2018-02-25T00:53:34.701Z,3.80
2018-02-25T00:54:37.934Z,4.55
2018-02-25T00:55:40.401Z,3.53
2018-02-25T00:56:42.895Z,3.55
2018-02-25T00:57:46.149Z,4.00
2018-02-25T00:58:48.691Z,4.03
2018-02-25T00:59:51.958Z,3.60
2018-02-25T01:00:54.443Z,3.95
2018-02-25T01:01:57.691Z,3.33
2018-02-25T01:03:00.931Z,3.90
2018-02-25T01:04:04.205Z,3.55
2018-02-25T01:05:06.715Z,3.62
2018-02-25T01:06:09.417Z,4.15
2018-02-25T01:07:12.649Z,4.00
2018-02-25T01:08:15.117Z,3.55
2018-02-25T01:09:17.642Z,3.60
2018-02-25T01:10:20.114Z,3.83
2018-02-25T01:11:22.682Z,4.00
2018-02-25T01:12:25.214Z,4.15
2018-02-25T01:13:27.664Z,3.92
2018-02-25T01:14:30.180Z,4.40
2018-02-25T01:15:32.658Z,4.70
2018-02-25T01:16:35.132Z,4.22
2018-02-25T01:17:37.598Z,3.90
2018-02-25T01:18:40.066Z,4.25
2018-02-25T01:19:43.323Z,4.00
2018-02-25T01:20:45.836Z,4.18
2018-02-25T01:21:48.325Z,4.40
2018-02-25T01:22:51.575Z,4.03
2018-02-25T01:23:54.796Z,4.60
2018-02-25T01:24:57.365Z,4.00
2018-02-25T01:25:59.886Z,4.35
2018-02-25T01:27:02.357Z,4.90
2018-02-25T01:28:04.841Z,4.60
2018-02-25T01:29:07.703Z,4.45
2018-02-25T01:30:10.205Z,4.25
2018-02-25T01:31:12.697Z,4.30
2018-02-25T01:32:16.115Z,3.87
2018-02-25T01:33:18.594Z,4.30
2018-02-25T01:34:21.823Z,3.70
2018-02-25T01:35:25.904Z,4.50
2018-02-25T01:36:28.383Z,4.10
2018-02-25T01:37:30.837Z,4.55
2018-02-25T01:38:34.113Z,4.72
2018-02-25T01:39:36.640Z,4.25
2018-02-25T01:40:39.106Z,4.20
2018-02-25T01:41:42.387Z,4.37
2018-02-25T01:42:44.861Z,4.37
2018-02-25T01:43:47.395Z,4.75
2018-02-25T01:44:49.850Z,4.30
2018-02-25T01:45:53.102Z,4.87
2018-02-25T01:46:55.733Z,4.22
2018-02-25T01:47:58.263Z,4.95
2018-02-25T01:49:00.809Z,4.85
2018-02-25T01:50:03.295Z,4.68
2018-02-25T01:51:06.618Z,4.53
2018-02-25T01:52:09.102Z,4.95
2018-02-25T01:53:11.563Z,4.62
2018-02-25T01:54:14.069Z,4.53
2018-02-25T01:55:16.671Z,4.60
2018-02-25T01:56:19.854Z,4.37
2018-02-25T01:57:23.141Z,4.72
2018-02-25T01:58:25.626Z,4.90
2018-02-25T01:59:28.202Z,4.37
2018-02-25T02:00:30.696Z,4.53
2018-02-25T02:01:33.959Z,4.35
2018-02-25T02:02:36.475Z,4.43
2018-02-25T02:03:39.714Z,4.80
2018-02-25T02:04:43.012Z,4.30
2018-02-25T02:05:45.473Z,4.68
2018-02-25T02:06:48.742Z,4.90
2018-02-25T02:07:51.210Z,4.32
2018-02-25T02:08:53.798Z,4.60
2018-02-25T02:09:56.836Z,4.37
2018-02-25T02:10:59.306Z,4.50
2018-02-25T02:12:02.575Z,4.60
2018-02-25T02:13:05.842Z,4.82
2018-02-25T02:14:08.320Z,4.53
2018-02-25T02:15:11.201Z,4.68
2018-02-25T02:16:13.735Z,4.55
2018-02-25T02:17:16.216Z,4.70
2018-02-25T02:18:18.746Z,4.87
2018-02-25T02:19:21.218Z,5.30
2018-02-25T02:20:24.289Z,4.20
2018-02-25T02:21:26.788Z,4.43
2018-02-25T02:22:29.270Z,4.90
2018-02-25T02:23:32.531Z,5.03
2018-02-25T02:24:35.154Z,4.93
2018-02-25T02:25:38.393Z,4.40
2018-02-25T02:26:41.657Z,4.97
2018-02-25T02:27:44.117Z,4.30
2018-02-25T02:28:46.604Z,4.72
2018-02-25T02:29:49.128Z,4.80
2018-02-25T02:30:51.594Z,4.75
2018-02-25T02:31:54.096Z,5.40
2018-02-25T02:32:56.555Z,4.50
2018-02-25T02:33:59.315Z,4.43
2018-02-25T02:35:02.545Z,4.90
2018-02-25T02:36:05.884Z,4.30
2018-02-25T02:37:08.558Z,4.50
2018-02-25T02:38:11.049Z,4.68
2018-02-25T02:39:14.288Z,4.20
2018-02-25T02:40:17.525Z,4.47
2018-02-25T02:41:20.760Z,4.50
2018-02-25T02:42:24.797Z,4.28
2018-02-25T02:43:27.282Z,4.10
2018-02-25T02:44:29.974Z,4.12
2018-02-25T02:45:32.457Z,4.12
2018-02-25T02:46:34.950Z,3.80
2018-02-25T02:47:38.220Z,5.10
2018-02-25T02:48:40.717Z,4.62
2018-02-25T02:49:43.993Z,4.57
2018-02-25T02:50:46.481Z,4.72
2018-02-25T02:51:49.735Z,4.62
2018-02-25T02:52:52.681Z,4.30
2018-02-25T02:53:55.148Z,4.18
2018-02-25T02:54:57.635Z,4.40
2018-02-25T02:56:00.098Z,4.05
2018-02-25T02:57:02.605Z,4.55
2018-02-25T02:58:05.128Z,4.00
2018-02-25T02:59:07.599Z,4.32
2018-02-25T03:00:10.840Z,4.20
2018-02-25T03:01:14.100Z,4.45
2018-02-25T03:02:17.323Z,4.05
2018-02-25T03:03:19.850Z,4.20
2018-02-25T03:04:23.091Z,3.87
2018-02-25T03:05:26.316Z,4.60
2018-02-25T03:06:28.800Z,4.28
2018-02-25T03:07:31.362Z,4.10
2018-02-25T03:08:33.889Z,4.50
2018-02-25T03:09:36.382Z,4.37
2018-02-25T03:10:38.848Z,4.85
2018-02-25T03:11:41.316Z,4.32
2018-02-25T03:12:43.794Z,4.12
2018-02-25T03:13:46.291Z,4.20
2018-02-25T03:14:48.760Z,4.55
2018-02-25T03:15:52.026Z,4.47
2018-02-25T03:16:54.497Z,4.53
2018-02-25T03:17:56.959Z,3.67
2018-02-25T03:19:00.225Z,4.00
2018-02-25T03:20:02.700Z,4.05
2018-02-25T03:21:05.183Z,4.22
2018-02-25T03:22:07.649Z,4.60
2018-02-25T03:23:10.215Z,4.18
2018-02-25T03:24:12.751Z,4.07
2018-02-25T03:25:15.257Z,4.22
2018-02-25T03:26:18.526Z,4.20
2018-02-25T03:27:21.004Z,4.15
2018-02-25T03:28:23.558Z,4.35
2018-02-25T03:29:26.816Z,4.28
2018-02-25T03:30:29.284Z,4.62
2018-02-25T03:31:31.764Z,4.18
2018-02-25T03:32:34.254Z,4.70
2018-02-25T03:33:37.494Z,4.05
2018-02-25T03:34:39.977Z,4.40
2018-02-25T03:35:42.471Z,4.53
2018-02-25T03:36:44.966Z,3.67
2018-02-25T03:37:47.423Z,4.37
2018-02-25T03:38:49.936Z,4.32
2018-02-25T03:39:53.195Z,4.35
2018-02-25T03:40:55.663Z,4.30
2018-02-25T03:41:58.146Z,4.30
2018-02-25T03:43:00.625Z,4.55
2018-02-25T03:44:03.090Z,4.18
2018-02-25T03:45:06.355Z,3.90
2018-02-25T03:46:08.855Z,4.25
2018-02-25T03:47:12.224Z,4.30
2018-02-25T03:48:15.511Z,4.22
2018-02-25T03:49:17.977Z,5.12
2018-02-25T03:50:20.455Z,4.30
2018-02-25T03:51:22.933Z,3.95
2018-02-25T03:52:25.416Z,4.35
2018-02-25T03:53:27.906Z,4.50
2018-02-25T03:54:30.368Z,3.87
2018-02-25T03:55:32.874Z,4.70
2018-02-25T03:56:35.369Z,4.35
2018-02-25T03:57:37.861Z,4.32
2018-02-25T03:58:41.191Z,4.57
2018-02-25T03:59:44.436Z,4.45
2018-02-25T04:00:47.687Z,4.55
2018-02-25T04:01:50.963Z,5.03
2018-02-25T04:02:53.456Z,5.10
2018-02-25T04:03:56.720Z,5.75
2018-02-25T04:04:59.194Z,4.70
2018-02-25T04:06:01.694Z,4.57
2018-02-25T04:07:04.170Z,5.32
2018-02-25T04:08:07.415Z,4.25
2018-02-25T04:09:10.654Z,4.45
2018-02-25T04:10:13.883Z,5.05
2018-02-25T04:11:16.389Z,4.55
2018-02-25T04:12:18.859Z,4.40
2018-02-25T04:13:22.113Z,4.53
2018-02-25T04:14:24.715Z,4.85
2018-02-25T04:15:28.816Z,4.90
2018-02-25T04:16:31.313Z,5.07
2018-02-25T04:17:34.580Z,5.18
2018-02-25T04:18:37.051Z,5.12
2018-02-25T04:19:39.541Z,4.45
2018-02-25T04:20:42.001Z,5.43
2018-02-25T04:21:45.265Z,5.10
2018-02-25T04:22:48.490Z,4.62
2018-02-25T04:23:50.953Z,5.15
2018-02-25T04:24:53.509Z,5.22
2018-02-25T04:25:56.014Z,5.18
2018-02-25T04:26:58.500Z,5.28
2018-02-25T04:28:01.757Z,5.25
2018-02-25T04:29:05.040Z,4.68
2018-02-25T04:30:07.587Z,5.50
2018-02-25T04:31:10.111Z,5.25
2018-02-25T04:32:12.806Z,5.03
2018-02-25T04:33:15.293Z,4.45
2018-02-25T04:34:18.572Z,4.85
2018-02-25T04:35:21.089Z,5.07
2018-02-25T04:36:23.637Z,5.57
2018-02-25T04:37:26.135Z,4.70
2018-02-25T04:38:28.604Z,4.85
2018-02-25T04:39:31.106Z,4.55
2018-02-25T04:40:33.587Z,4.70
2018-02-25T04:41:36.116Z,4.75
2018-02-25T04:42:39.398Z,5.95
2018-02-25T04:43:42.844Z,5.07
2018-02-25T04:44:45.408Z,5.28
2018-02-25T04:45:47.881Z,5.10
2018-02-25T04:46:50.393Z,4.37
2018-02-25T04:47:53.874Z,4.60
2018-02-25T04:48:56.361Z,5.40
2018-02-25T04:49:59.601Z,5.20
2018-02-25T04:51:02.857Z,4.97
2018-02-25T04:52:06.101Z,5.10
2018-02-25T04:53:08.632Z,5.30
2018-02-25T04:54:11.097Z,5.57
2018-02-25T04:55:13.582Z,5.00
2018-02-25T04:56:16.059Z,5.18
2018-02-25T04:57:18.694Z,5.20
2018-02-25T04:58:21.248Z,5.30
2018-02-25T04:59:24.543Z,5.28
2018-02-25T05:00:27.039Z,5.00
2018-02-25T05:01:29.522Z,5.43
2018-02-25T05:02:32.001Z,5.03
2018-02-25T05:03:34.617Z,4.78
2018-02-25T05:04:37.098Z,5.00
2018-02-25T05:05:39.578Z,5.30
2018-02-25T05:06:42.073Z,5.45
2018-02-25T05:07:45.318Z,5.50
2018-02-25T05:08:48.592Z,6.07
2018-02-25T05:09:51.819Z,4.45
2018-02-25T05:10:54.322Z,5.25
2018-02-25T05:11:57.566Z,5.03
2018-02-25T05:13:00.827Z,4.60
2018-02-25T05:14:03.338Z,5.22
2018-02-25T05:15:05.858Z,5.45
2018-02-25T05:16:09.158Z,4.85
2018-02-25T05:17:12.139Z,5.75
2018-02-25T05:18:15.394Z,5.50
2018-02-25T05:19:17.990Z,5.00
2018-02-25T05:20:20.502Z,4.93
2018-02-25T05:21:22.988Z,5.60
2018-02-25T05:22:25.506Z,5.95
2018-02-25T05:23:28.008Z,5.45
2018-02-25T05:24:31.283Z,5.22
2018-02-25T05:26:41.792Z,5.37
2018-02-25T05:27:44.317Z,5.30
2018-02-25T05:28:46.774Z,4.90
2018-02-25T05:29:50.164Z,5.40
2018-02-25T05:30:52.663Z,4.85
2018-02-25T05:31:55.901Z,4.93
2018-02-25T05:32:59.138Z,4.50
2018-02-25T05:34:02.385Z,5.50
2018-02-25T05:35:05.738Z,5.80
2018-02-25T05:36:08.214Z,5.25
2018-02-25T05:37:10.687Z,5.95
2018-02-25T05:38:13.151Z,5.35
2018-02-25T05:39:15.650Z,5.18
2018-02-25T05:40:18.140Z,5.15
2018-02-25T05:41:21.357Z,4.82
2018-02-25T05:42:23.839Z,4.97
2018-02-25T05:43:26.404Z,5.30
2018-02-25T05:44:28.931Z,5.97
2018-02-25T05:45:31.518Z,5.25
2018-02-25T05:46:33.977Z,5.65
2018-02-25T05:47:36.451Z,5.70
2018-02-25T05:48:39.747Z,6.00
2018-02-25T05:49:42.211Z,5.32
2018-02-25T05:50:45.496Z,5.30
2018-02-25T05:51:47.964Z,5.45
2018-02-25T05:52:51.188Z,4.80
2018-02-25T05:53:53.692Z,4.90
2018-02-25T05:54:56.155Z,5.40
2018-02-25T05:55:58.719Z,4.80
2018-02-25T05:57:01.337Z,5.60
2018-02-25T05:58:03.846Z,5.20
2018-02-25T05:59:07.096Z,4.60
2018-02-25T06:00:09.580Z,4.90
2018-02-25T06:01:12.070Z,5.25
2018-02-25T06:02:14.567Z,6.00
2018-02-25T06:03:17.874Z,6.15
2018-02-25T06:04:20.344Z,5.18
2018-02-25T06:05:23.614Z,5.53
2018-02-25T06:06:26.125Z,5.68
2018-02-25T06:07:28.607Z,5.35
2018-02-25T06:08:31.093Z,5.60
2018-02-25T06:09:33.673Z,5.95
2018-02-25T06:10:36.923Z,5.40
2018-02-25T06:11:40.229Z,6.03
2018-02-25T06:12:43.457Z,5.78
2018-02-25T06:13:45.920Z,5.55
2018-02-25T06:14:49.199Z,5.87
2018-02-25T06:15:51.677Z,6.57
2018-02-25T06:16:54.323Z,5.05
2018-02-25T06:17:56.875Z,6.10
2018-02-25T06:18:59.365Z,6.10
2018-02-25T06:20:01.887Z,6.43
2018-02-25T06:21:04.534Z,6.00
2018-02-25T06:22:07.824Z,5.80
2018-02-25T06:23:10.321Z,6.03
2018-02-25T06:24:12.815Z,6.57
2018-02-25T06:25:16.071Z,6.15
2018-02-25T06:26:19.301Z,6.70
2018-02-25T06:27:22.583Z,5.90
2018-02-25T06:28:25.194Z,6.62
2018-02-25T06:29:28.505Z,6.43
2018-02-25T06:30:30.991Z,6.15
2018-02-25T06:31:33.491Z,6.15
2018-02-25T06:32:36.759Z,5.93
2018-02-25T06:33:39.238Z,5.85
2018-02-25T06:34:42.488Z,6.60
2018-02-25T06:35:45.533Z,6.00
2018-02-25T06:36:48.830Z,6.85
2018-02-25T06:37:51.308Z,6.22
2018-02-25T06:38:54.542Z,5.87
2018-02-25T06:39:57.799Z,5.85
2018-02-25T06:41:00.274Z,6.65
2018-02-25T06:42:02.819Z,5.55
2018-02-25T06:43:06.118Z,6.85
2018-02-25T06:44:08.666Z,6.85
2018-02-25T06:45:11.153Z,5.60
2018-02-25T06:46:13.637Z,6.28
2018-02-25T06:47:16.132Z,6.90
2018-02-25T06:48:18.668Z,7.15
2018-02-25T06:49:21.148Z,6.93
2018-02-25T06:50:23.735Z,6.60
2018-02-25T06:51:26.259Z,6.57
2018-02-25T06:52:28.764Z,6.60
2018-02-25T06:53:31.270Z,6.68
2018-02-25T06:54:33.735Z,6.10
2018-02-25T06:55:36.214Z,6.53
2018-02-25T06:56:38.731Z,6.80
2018-02-25T06:57:41.232Z,6.87
2018-02-25T06:58:44.516Z,6.68
2018-02-25T06:59:47.023Z,7.07
2018-02-25T07:00:49.502Z,7.47
2018-02-25T07:01:51.978Z,7.07
2018-02-25T07:02:54.448Z,6.50
2018-02-25T07:03:56.972Z,6.20
2018-02-25T07:04:59.456Z,6.55
2018-02-25T07:06:01.943Z,7.22
2018-02-25T07:07:04.414Z,7.20
2018-02-25T07:08:06.934Z,5.93
2018-02-25T07:09:09.503Z,7.10
2018-02-25T07:10:12.132Z,7.45
2018-02-25T07:11:14.724Z,6.87
2018-02-25T07:12:17.237Z,6.55
2018-02-25T07:13:19.784Z,6.37
2018-02-25T07:14:22.287Z,6.85
2018-02-25T07:15:24.742Z,6.68
2018-02-25T07:16:27.214Z,6.55
2018-02-25T07:17:30.475Z,6.55
2018-02-25T07:18:32.963Z,6.85
2018-02-25T07:19:35.450Z,6.55
2018-02-25T07:20:37.935Z,6.43
2018-02-25T07:21:40.401Z,6.30
2018-02-25T07:22:42.928Z,6.93
2018-02-25T07:23:45.534Z,6.78
2018-02-25T07:24:48.774Z,7.37
2018-02-25T07:25:51.243Z,7.28
2018-02-25T07:26:53.761Z,7.00
2018-02-25T07:27:56.282Z,6.25
2018-02-25T07:28:58.769Z,7.12
2018-02-25T07:30:01.249Z,7.10
2018-02-25T07:31:03.737Z,6.25
2018-02-25T07:32:06.252Z,6.65
2018-02-25T07:33:08.853Z,6.78
2018-02-25T07:34:12.250Z,6.60
2018-02-25T07:35:14.737Z,7.30
2018-02-25T07:36:17.214Z,6.45
2018-02-25T07:37:19.719Z,6.93
2018-02-25T07:38:22.238Z,6.32
2018-02-25T07:39:24.746Z,6.20
2018-02-25T07:40:27.214Z,6.40
2018-02-25T07:41:29.681Z,6.65
2018-02-25T07:42:32.977Z,6.70
2018-02-25T07:43:35.452Z,7.10
2018-02-25T07:44:38.755Z,6.53
2018-02-25T07:45:41.285Z,6.97
2018-02-25T07:46:43.763Z,6.70
2018-02-25T07:47:46.242Z,6.57
2018-02-25T07:48:48.767Z,6.43
2018-02-25T07:49:52.042Z,6.95
2018-02-25T07:50:54.531Z,6.82
2018-02-25T07:51:57.021Z,6.30
2018-02-25T07:52:59.535Z,5.47
2018-02-25T07:54:02.306Z,6.57
2018-02-25T07:55:05.579Z,7.03
2018-02-25T07:56:08.838Z,6.80
2018-02-25T07:57:12.106Z,6.28
2018-02-25T07:58:14.599Z,6.53
2018-02-25T07:59:17.986Z,6.15
2018-02-25T08:00:20.473Z,5.70
2018-02-25T08:01:23.774Z,7.43
2018-02-25T08:02:26.258Z,6.82
2018-02-25T08:03:28.732Z,6.40
2018-02-25T08:04:32.038Z,5.90
2018-02-25T08:05:34.564Z,7.30
2018-02-25T08:06:37.095Z,6.37
2018-02-25T08:07:39.570Z,6.65
2018-02-25T08:08:42.823Z,6.53
2018-02-25T08:09:46.084Z,6.10
2018-02-25T08:10:48.556Z,6.57
2018-02-25T08:11:51.156Z,6.28
2018-02-25T08:12:54.442Z,5.47
2018-02-25T08:13:57.790Z,5.57
2018-02-25T08:15:00.291Z,5.70
2018-02-25T08:16:02.816Z,5.60
2018-02-25T08:17:05.340Z,5.50
2018-02-25T08:18:07.799Z,4.93
2018-02-25T08:19:10.273Z,5.15
2018-02-25T08:20:12.783Z,4.70
2018-02-25T08:21:15.282Z,4.87
2018-02-25T08:22:18.737Z,4.68
2018-02-25T08:23:21.971Z,5.15
2018-02-25T08:24:25.227Z,5.18
2018-02-25T08:25:27.759Z,3.97
2018-02-25T08:26:30.330Z,4.30
2018-02-25T08:27:33.438Z,4.18
2018-02-25T08:28:35.928Z,4.05
2018-02-25T08:29:39.182Z,4.50
2018-02-25T08:30:41.671Z,4.10
2018-02-25T08:31:45.723Z,4.68
2018-02-25T08:32:48.203Z,4.85
2018-02-25T08:33:50.688Z,4.97
2018-02-25T08:34:53.990Z,4.45
2018-02-25T08:35:56.438Z,4.62
2018-02-25T08:36:59.098Z,4.60
2018-02-25T08:38:02.367Z,5.03
2018-02-25T08:39:04.840Z,4.97
2018-02-25T08:40:07.542Z,5.10
2018-02-25T08:41:10.404Z,4.47
2018-02-25T08:42:12.900Z,4.40
2018-02-25T08:43:15.376Z,4.22
2018-02-25T08:44:17.840Z,4.30
2018-02-25T08:45:20.311Z,3.65
2018-02-25T08:46:22.823Z,3.47
2018-02-25T08:47:25.289Z,4.20
2018-02-25T08:48:28.543Z,4.97
2018-02-25T08:49:31.016Z,5.22
2018-02-25T08:50:33.549Z,4.93
2018-02-25T08:51:36.060Z,6.03
2018-02-25T08:52:38.528Z,5.75
2018-02-25T08:53:41.761Z,5.20
2018-02-25T08:54:44.314Z,4.60
2018-02-25T08:55:46.825Z,4.70
2018-02-25T08:56:50.189Z,5.05
2018-02-25T08:57:52.683Z,4.53
2018-02-25T08:58:55.964Z,5.05
2018-02-25T08:59:58.435Z,4.53
2018-02-25T09:01:02.422Z,4.35
2018-02-25T09:02:05.658Z,4.45
2018-02-25T09:03:08.918Z,4.65
2018-02-25T09:04:12.215Z,4.60
2018-02-25T09:05:14.693Z,5.18
2018-02-25T09:06:17.231Z,4.40
2018-02-25T09:07:19.748Z,4.45
2018-02-25T09:08:22.262Z,4.85
2018-02-25T09:09:24.750Z,4.25
2018-02-25T09:10:27.244Z,4.75
2018-02-25T09:11:29.756Z,4.53
2018-02-25T09:12:32.273Z,4.50
2018-02-25T09:13:34.765Z,4.20
2018-02-25T09:14:37.283Z,4.28
2018-02-25T09:15:40.581Z,4.45
2018-02-25T09:16:43.113Z,4.47
2018-02-25T09:17:45.595Z,3.92
2018-02-25T09:18:48.169Z,4.20
2018-02-25T09:19:50.646Z,4.30
2018-02-25T09:20:53.911Z,4.00
2018-02-25T09:21:56.420Z,4.37
2018-02-25T09:22:59.793Z,4.07
2018-02-25T09:24:02.306Z,4.12
2018-02-25T09:25:04.755Z,4.47
2018-02-25T09:26:07.249Z,4.60
2018-02-25T09:27:10.503Z,3.70
2018-02-25T09:28:13.305Z,4.75
2018-02-25T09:29:15.823Z,3.80
2018-02-25T09:30:19.814Z,4.28
2018-02-25T09:31:23.953Z,4.68
2018-02-25T09:32:27.065Z,3.75
2018-02-25T09:33:29.532Z,3.70
2018-02-25T09:34:32.812Z,3.85
2018-02-25T09:35:35.309Z,3.97
2018-02-25T09:36:37.802Z,4.07
2018-02-25T09:37:41.080Z,4.32
2018-02-25T09:38:43.546Z,4.10
2018-02-25T09:39:46.068Z,4.18
2018-02-25T09:40:48.567Z,4.15
2018-02-25T09:41:51.055Z,4.47
2018-02-25T09:42:54.326Z,4.22
2018-02-25T09:43:56.835Z,4.30
2018-02-25T09:44:59.350Z,3.80
2018-02-25T09:46:02.683Z,4.10
2018-02-25T09:47:05.913Z,3.75
2018-02-25T09:48:08.553Z,3.92
2018-02-25T09:49:11.078Z,4.50
2018-02-25T09:50:13.566Z,4.15
2018-02-25T09:51:16.140Z,3.80
2018-02-25T09:52:18.616Z,4.50
2018-02-25T09:53:21.140Z,4.32
2018-02-25T09:54:23.668Z,3.92
2018-02-25T09:55:26.209Z,4.00
2018-02-25T09:56:28.825Z,4.07
2018-02-25T09:57:31.348Z,3.72
2018-02-25T09:58:33.876Z,3.67
2018-02-25T09:59:36.429Z,4.12
2018-02-25T10:00:38.905Z,3.78
2018-02-25T10:01:41.394Z,4.35
2018-02-25T10:02:43.893Z,3.78
2018-02-25T10:03:46.389Z,4.32
2018-02-25T10:04:48.905Z,4.00
2018-02-25T10:05:51.392Z,3.72
2018-02-25T10:06:54.760Z,4.28
2018-02-25T10:07:57.995Z,3.62
2018-02-25T10:09:00.492Z,3.87
2018-02-25T10:10:03.309Z,3.90
2018-02-25T10:11:06.596Z,3.47
2018-02-25T10:12:09.200Z,4.07
2018-02-25T10:13:12.444Z,3.90
2018-02-25T10:14:14.939Z,3.75
2018-02-25T10:15:17.556Z,3.80
2018-02-25T10:16:20.098Z,4.00
2018-02-25T10:17:22.589Z,3.95
2018-02-25T10:18:25.089Z,3.60
2018-02-25T10:19:28.347Z,3.65
2018-02-25T10:20:31.597Z,3.65
2018-02-25T10:21:34.059Z,3.80
2018-02-25T10:22:36.576Z,3.75
2018-02-25T10:23:39.089Z,4.37
2018-02-25T10:24:41.597Z,3.70
2018-02-25T10:25:44.083Z,3.70
2018-02-25T10:26:46.558Z,3.55
2018-02-25T10:27:49.060Z,3.65
2018-02-25T10:28:52.334Z,3.42
2018-02-25T10:29:54.851Z,2.97
2018-02-25T10:30:57.302Z,3.80
2018-02-25T10:32:00.575Z,4.07
2018-02-25T10:33:03.830Z,3.70
2018-02-25T10:34:07.131Z,3.20
2018-02-25T10:35:09.742Z,3.67
2018-02-25T10:36:12.251Z,2.95
2018-02-25T10:37:14.724Z,3.60
2018-02-25T10:38:17.246Z,3.20
2018-02-25T10:39:19.728Z,3.87
2018-02-25T10:40:22.400Z,3.50
2018-02-25T10:41:25.630Z,3.20
2018-02-25T10:42:28.138Z,3.45
2018-02-25T10:43:30.668Z,3.40
2018-02-25T10:44:33.148Z,3.22
2018-02-25T10:45:35.648Z,3.72
2018-02-25T10:46:38.120Z,3.58
2018-02-25T10:47:41.348Z,3.35
2018-02-25T10:48:44.610Z,3.03
2018-02-25T10:49:47.067Z,3.00
2018-02-25T10:50:49.579Z,3.50
2018-02-25T10:51:52.059Z,2.90
2018-02-25T10:52:54.532Z,3.22
2018-02-25T10:53:57.008Z,3.62
2018-02-25T10:55:00.289Z,3.72
2018-02-25T10:56:02.774Z,3.08
2018-02-25T10:57:05.339Z,3.08
2018-02-25T10:58:07.853Z,3.67
2018-02-25T10:59:10.434Z,3.22
2018-02-25T11:00:13.479Z,3.28
2018-02-25T11:01:15.999Z,3.25
2018-02-25T11:02:18.483Z,3.25
2018-02-25T11:03:20.962Z,3.40
2018-02-25T11:04:23.502Z,3.65
2018-02-25T11:05:26.726Z,3.60
2018-02-25T11:06:29.242Z,3.00
2018-02-25T11:07:32.505Z,3.47
2018-02-25T11:08:34.966Z,3.80
2018-02-25T11:09:37.541Z,3.50
2018-02-25T11:10:40.040Z,3.42
2018-02-25T11:11:42.528Z,3.10
2018-02-25T11:12:46.318Z,3.40
2018-02-25T11:13:48.915Z,3.00
2018-02-25T11:14:51.443Z,3.00
2018-02-25T11:15:53.905Z,2.80
2018-02-25T11:16:56.386Z,3.37
2018-02-25T11:17:58.862Z,3.10
2018-02-25T11:19:01.355Z,3.17
2018-02-25T11:20:03.889Z,3.20
2018-02-25T11:21:06.354Z,3.33
2018-02-25T11:22:08.869Z,3.85
2018-02-25T11:23:11.339Z,4.20
2018-02-25T11:24:13.859Z,3.75
2018-02-25T11:25:17.109Z,3.70
2018-02-25T11:26:19.587Z,3.30
2018-02-25T11:27:22.206Z,16.75
2018-02-25T11:28:24.710Z,8.45
2018-02-25T11:29:27.226Z,3.90
2018-02-25T11:30:29.851Z,3.17
2018-02-25T11:31:32.429Z,3.65
2018-02-25T11:32:35.643Z,3.50
2018-02-25T11:33:38.135Z,3.53
2018-02-25T11:34:40.607Z,3.40
2018-02-25T11:35:43.238Z,3.45
2018-02-25T11:36:47.248Z,3.95
2018-02-25T11:37:49.748Z,3.75
2018-02-25T11:38:52.991Z,3.58
2018-02-25T11:39:56.964Z,3.10
2018-02-25T11:40:59.439Z,3.30
2018-02-25T11:42:01.903Z,3.70
2018-02-25T11:43:05.151Z,3.70
2018-02-25T11:44:08.431Z,3.47
2018-02-25T11:45:10.932Z,3.15
2018-02-25T11:46:14.212Z,3.10
2018-02-25T11:47:16.800Z,2.90
2018-02-25T11:48:20.075Z,3.55
2018-02-25T11:49:22.546Z,3.33
2018-02-25T11:50:25.855Z,3.75
2018-02-25T11:51:28.338Z,3.35
2018-02-25T11:52:31.615Z,2.72
2018-02-25T11:53:34.083Z,3.00
2018-02-25T11:54:37.336Z,3.17
2018-02-25T11:55:40.799Z,3.35
2018-02-25T11:56:44.040Z,3.50
2018-02-25T11:57:46.534Z,3.75
2018-02-25T11:58:50.520Z,3.20
2018-02-25T11:59:52.987Z,4.95
2018-02-25T12:00:55.442Z,4.22
2018-02-25T12:01:58.694Z,3.10
2018-02-25T12:03:01.200Z,3.45
2018-02-25T12:04:03.677Z,3.20
2018-02-25T12:05:06.148Z,3.33
2018-02-25T12:06:08.606Z,3.42
2018-02-25T12:07:11.870Z,3.35
2018-02-25T12:08:14.401Z,3.37
2018-02-25T12:09:16.892Z,2.75
2018-02-25T12:10:19.343Z,3.12
2018-02-25T12:11:21.834Z,3.58
2018-02-25T12:12:24.336Z,3.28
2018-02-25T12:13:26.937Z,3.55
2018-02-25T12:14:29.401Z,3.58
2018-02-25T12:15:31.869Z,3.37
2018-02-25T12:16:34.359Z,3.28
2018-02-25T12:17:36.862Z,3.60
2018-02-25T12:18:40.114Z,3.50
2018-02-25T12:19:43.777Z,4.10
2018-02-25T12:20:47.075Z,2.97
2018-02-25T12:21:49.538Z,3.10
2018-02-25T12:22:52.024Z,3.17
2018-02-25T12:23:54.500Z,2.87
2018-02-25T12:24:56.982Z,3.15
2018-02-25T12:25:59.576Z,2.67
2018-02-25T12:27:02.794Z,2.53
2018-02-25T12:28:06.023Z,2.58
2018-02-25T12:29:10.045Z,2.37
2018-02-25T12:30:12.536Z,2.70
2018-02-25T12:31:15.807Z,2.67
2018-02-25T12:32:18.300Z,3.10
2018-02-25T12:33:21.555Z,2.60
2018-02-25T12:34:24.025Z,2.75
2018-02-25T12:35:26.558Z,3.28
2018-02-25T12:36:29.014Z,2.85
2018-02-25T12:37:32.254Z,2.70
2018-02-25T12:38:35.486Z,2.90
2018-02-25T12:39:38.353Z,2.70
2018-02-25T12:40:40.848Z,2.70
2018-02-25T12:41:44.084Z,2.78
2018-02-25T12:42:48.046Z,2.80
2018-02-25T12:43:50.552Z,2.90
2018-02-25T12:44:53.803Z,2.47
2018-02-25T12:45:57.809Z,2.80
2018-02-25T12:47:00.259Z,2.92
2018-02-25T12:48:02.766Z,2.65
2018-02-25T12:49:05.292Z,2.65
2018-02-25T12:50:07.828Z,2.83
2018-02-25T12:51:10.291Z,2.90
2018-02-25T12:52:14.285Z,2.95
2018-02-25T12:53:16.760Z,3.00
2018-02-25T12:54:19.274Z,3.53
2018-02-25T12:55:21.770Z,2.87
2018-02-25T12:56:24.235Z,2.87
2018-02-25T12:57:26.699Z,2.85
2018-02-25T12:58:29.975Z,3.20
2018-02-25T12:59:33.063Z,2.80
2018-02-25T13:00:35.566Z,3.37
2018-02-25T13:01:38.152Z,3.30
2018-02-25T13:02:40.660Z,3.22
2018-02-25T13:03:43.877Z,2.80
2018-02-25T13:04:46.342Z,3.12
2018-02-25T13:05:48.821Z,3.08
2018-02-25T13:06:51.347Z,2.65
2018-02-25T13:07:53.841Z,2.20
2018-02-25T13:08:56.308Z,2.03
2018-02-25T13:09:58.778Z,2.30
2018-02-25T13:11:01.460Z,2.45
2018-02-25T13:12:04.033Z,2.28
2018-02-25T13:13:06.514Z,3.35
2018-02-25T13:14:10.720Z,2.53
2018-02-25T13:15:13.251Z,3.17
2018-02-25T13:16:15.717Z,2.42
2018-02-25T13:17:18.717Z,3.00
2018-02-25T13:18:21.212Z,2.42
2018-02-25T13:19:23.697Z,2.20
2018-02-25T13:20:26.183Z,2.30
2018-02-25T13:21:28.662Z,2.60
2018-02-25T13:22:31.141Z,2.80
2018-02-25T13:23:33.652Z,2.53
2018-02-25T13:24:36.139Z,2.75
2018-02-25T13:25:38.615Z,2.65
2018-02-25T13:26:41.195Z,2.72
2018-02-25T13:27:44.464Z,2.95
2018-02-25T13:28:47.833Z,2.58
2018-02-25T13:29:50.342Z,2.40
2018-02-25T13:30:52.809Z,2.40
2018-02-25T13:31:55.289Z,3.17
2018-02-25T13:32:57.865Z,2.50
2018-02-25T13:34:00.313Z,2.92
2018-02-25T13:35:02.822Z,2.30
2018-02-25T13:36:08.235Z,2.83
2018-02-25T13:37:11.810Z,2.10
2018-02-25T13:38:14.392Z,2.22
2018-02-25T13:39:16.871Z,2.33
2018-02-25T13:40:19.788Z,2.33
2018-02-25T13:41:22.253Z,2.37
2018-02-25T13:42:24.755Z,2.60
2018-02-25T13:43:27.318Z,2.30
2018-02-25T13:44:29.837Z,2.40
2018-02-25T13:45:32.336Z,2.78
2018-02-25T13:46:34.804Z,2.60
2018-02-25T13:47:38.883Z,2.28
2018-02-25T13:48:42.150Z,2.60
2018-02-25T13:49:44.630Z,2.33
2018-02-25T13:50:48.667Z,2.47
2018-02-25T13:51:51.156Z,2.90
2018-02-25T13:52:53.660Z,2.75
2018-02-25T13:53:56.281Z,3.00
2018-02-25T13:54:58.695Z,2.97
2018-02-25T13:56:02.692Z,2.67